sensor_id;sensor_type;location;lat;lon;timestamp;P1;durP1;ratioP1;P2;durP2;ratioP2
2029;SDS011;1020;48.854;8.830;2023-08-20T00:01:02;12.07;;;11.17;;
2029;SDS011;1020;48.854;8.830;2023-08-20T00:03:32;11.83;;;10.90;;
2029;SDS011;1020;48.854;8.830;2023-08-20T00:05:59;11.23;;;10.27;;
2029;SDS011;1020;48.854;8.830;2023-08-20T00:08:27;10.83;;;10.03;;
2029;SDS011;1020;48.854;8.830;2023-08-20T00:10:54;12.07;;;11.07;;
2029;SDS011;1020;48.854;8.830;2023-08-20T00:13:21;12.40;;;11.40;;
2029;SDS011;1020;48.854;8.830;2023-08-20T00:15:48;10.83;;;10.00;;
2029;SDS011;1020;48.854;8.830;2023-08-20T00:18:15;10.23;;;9.43;;
2029;SDS011;1020;48.854;8.830;2023-08-20T00:20:44;11.80;;;10.90;;
2029;SDS011;1020;48.854;8.830;2023-08-20T00:23:12;10.23;;;9.43;;
2029;SDS011;1020;48.854;8.830;2023-08-20T00:25:40;10.77;;;9.83;;
2029;SDS011;1020;48.854;8.830;2023-08-20T00:28:07;11.93;;;10.90;;
2029;SDS011;1020;48.854;8.830;2023-08-20T00:30:33;13.00;;;12.10;;
2029;SDS011;1020;48.854;8.830;2023-08-20T00:33:00;12.20;;;11.33;;
2029;SDS011;1020;48.854;8.830;2023-08-20T00:35:27;12.63;;;11.57;;
2029;SDS011;1020;48.854;8.830;2023-08-20T00:37:55;12.77;;;11.73;;
2029;SDS011;1020;48.854;8.830;2023-08-20T00:40:22;13.80;;;12.70;;
2029;SDS011;1020;48.854;8.830;2023-08-20T00:42:49;13.63;;;12.43;;
2029;SDS011;1020;48.854;8.830;2023-08-20T00:45:16;13.20;;;12.23;;
2029;SDS011;1020;48.854;8.830;2023-08-20T00:47:43;12.53;;;11.60;;
2029;SDS011;1020;48.854;8.830;2023-08-20T00:50:10;12.47;;;11.37;;
2029;SDS011;1020;48.854;8.830;2023-08-20T00:52:38;11.33;;;10.53;;
2029;SDS011;1020;48.854;8.830;2023-08-20T00:55:07;12.20;;;11.30;;
2029;SDS011;1020;48.854;8.830;2023-08-20T00:57:36;11.60;;;10.70;;
2029;SDS011;1020;48.854;8.830;2023-08-20T01:00:03;12.07;;;11.17;;
2029;SDS011;1020;48.854;8.830;2023-08-20T01:02:34;12.40;;;11.50;;
2029;SDS011;1020;48.854;8.830;2023-08-20T01:05:02;12.87;;;11.97;;
2029;SDS011;1020;48.854;8.830;2023-08-20T01:07:34;11.27;;;10.47;;
2029;SDS011;1020;48.854;8.830;2023-08-20T01:10:11;11.90;;;10.90;;
2029;SDS011;1020;48.854;8.830;2023-08-20T01:12:44;12.53;;;11.53;;
2029;SDS011;1020;48.854;8.830;2023-08-20T01:15:12;11.53;;;10.70;;
2029;SDS011;1020;48.854;8.830;2023-08-20T01:17:40;11.80;;;11.00;;
2029;SDS011;1020;48.854;8.830;2023-08-20T01:20:07;12.23;;;11.33;;
2029;SDS011;1020;48.854;8.830;2023-08-20T01:22:41;11.53;;;10.73;;
2029;SDS011;1020;48.854;8.830;2023-08-20T01:25:28;11.43;;;10.70;;
2029;SDS011;1020;48.854;8.830;2023-08-20T01:30:52;11.33;;;10.43;;
2029;SDS011;1020;48.854;8.830;2023-08-20T01:33:20;12.47;;;11.57;;
2029;SDS011;1020;48.854;8.830;2023-08-20T01:35:47;11.70;;;10.80;;
2029;SDS011;1020;48.854;8.830;2023-08-20T01:38:13;11.73;;;10.83;;
2029;SDS011;1020;48.854;8.830;2023-08-20T01:40:40;12.67;;;11.57;;
2029;SDS011;1020;48.854;8.830;2023-08-20T01:43:07;11.83;;;11.03;;
2029;SDS011;1020;48.854;8.830;2023-08-20T01:45:36;11.47;;;10.60;;
2029;SDS011;1020;48.854;8.830;2023-08-20T01:48:03;10.57;;;9.60;;
2029;SDS011;1020;48.854;8.830;2023-08-20T01:50:30;11.50;;;10.50;;
2029;SDS011;1020;48.854;8.830;2023-08-20T01:52:56;11.60;;;10.80;;
2029;SDS011;1020;48.854;8.830;2023-08-20T01:55:23;11.20;;;10.40;;
2029;SDS011;1020;48.854;8.830;2023-08-20T01:57:50;11.33;;;10.30;;
2029;SDS011;1020;48.854;8.830;2023-08-20T02:00:17;11.50;;;10.60;;
2029;SDS011;1020;48.854;8.830;2023-08-20T02:02:45;11.33;;;10.43;;
2029;SDS011;1020;48.854;8.830;2023-08-20T02:05:12;11.87;;;10.97;;
2029;SDS011;1020;48.854;8.830;2023-08-20T02:07:38;11.33;;;10.43;;
2029;SDS011;1020;48.854;8.830;2023-08-20T02:10:06;11.33;;;10.53;;
2029;SDS011;1020;48.854;8.830;2023-08-20T02:12:34;11.30;;;10.50;;
2029;SDS011;1020;48.854;8.830;2023-08-20T02:15:01;11.87;;;10.97;;
2029;SDS011;1020;48.854;8.830;2023-08-20T02:17:28;12.50;;;11.40;;
2029;SDS011;1020;48.854;8.830;2023-08-20T02:19:56;12.30;;;10.80;;
2029;SDS011;1020;48.854;8.830;2023-08-20T02:22:23;11.43;;;10.60;;
2029;SDS011;1020;48.854;8.830;2023-08-20T02:24:50;11.23;;;10.30;;
2029;SDS011;1020;48.854;8.830;2023-08-20T02:27:17;10.20;;;9.40;;
2029;SDS011;1020;48.854;8.830;2023-08-20T02:29:43;11.00;;;10.00;;
2029;SDS011;1020;48.854;8.830;2023-08-20T02:32:10;10.83;;;10.03;;
2029;SDS011;1020;48.854;8.830;2023-08-20T02:34:36;11.50;;;10.60;;
2029;SDS011;1020;48.854;8.830;2023-08-20T02:37:05;10.60;;;9.80;;
2029;SDS011;1020;48.854;8.830;2023-08-20T02:39:31;12.00;;;10.93;;
2029;SDS011;1020;48.854;8.830;2023-08-20T02:41:58;11.70;;;10.80;;
2029;SDS011;1020;48.854;8.830;2023-08-20T02:44:25;12.27;;;11.27;;
2029;SDS011;1020;48.854;8.830;2023-08-20T02:46:52;13.27;;;12.27;;
2029;SDS011;1020;48.854;8.830;2023-08-20T02:49:18;13.43;;;12.43;;
2029;SDS011;1020;48.854;8.830;2023-08-20T02:51:45;13.73;;;12.60;;
2029;SDS011;1020;48.854;8.830;2023-08-20T02:54:13;13.10;;;12.20;;
2029;SDS011;1020;48.854;8.830;2023-08-20T02:56:40;14.67;;;13.47;;
2029;SDS011;1020;48.854;8.830;2023-08-20T02:59:07;12.87;;;11.87;;
2029;SDS011;1020;48.854;8.830;2023-08-20T03:01:34;13.53;;;12.53;;
2029;SDS011;1020;48.854;8.830;2023-08-20T03:04:01;13.80;;;12.80;;
2029;SDS011;1020;48.854;8.830;2023-08-20T03:06:29;14.73;;;13.43;;
2029;SDS011;1020;48.854;8.830;2023-08-20T03:08:56;15.60;;;14.40;;
2029;SDS011;1020;48.854;8.830;2023-08-20T03:11:24;13.73;;;12.73;;
2029;SDS011;1020;48.854;8.830;2023-08-20T03:13:50;14.60;;;13.47;;
2029;SDS011;1020;48.854;8.830;2023-08-20T03:16:17;13.30;;;12.30;;
2029;SDS011;1020;48.854;8.830;2023-08-20T03:18:44;15.40;;;14.20;;
2029;SDS011;1020;48.854;8.830;2023-08-20T03:21:11;14.10;;;12.90;;
2029;SDS011;1020;48.854;8.830;2023-08-20T03:23:37;14.50;;;13.20;;
2029;SDS011;1020;48.854;8.830;2023-08-20T03:26:04;16.70;;;15.20;;
2029;SDS011;1020;48.854;8.830;2023-08-20T03:28:32;14.30;;;13.10;;
2029;SDS011;1020;48.854;8.830;2023-08-20T03:30:59;15.37;;;14.10;;
2029;SDS011;1020;48.854;8.830;2023-08-20T03:33:27;15.10;;;13.70;;
2029;SDS011;1020;48.854;8.830;2023-08-20T03:35:53;15.90;;;14.40;;
2029;SDS011;1020;48.854;8.830;2023-08-20T03:38:20;15.47;;;14.27;;
2029;SDS011;1020;48.854;8.830;2023-08-20T03:40:47;16.10;;;14.80;;
2029;SDS011;1020;48.854;8.830;2023-08-20T03:43:14;17.30;;;15.80;;
2029;SDS011;1020;48.854;8.830;2023-08-20T03:45:42;16.63;;;15.33;;
2029;SDS011;1020;48.854;8.830;2023-08-20T03:48:09;16.13;;;14.73;;
2029;SDS011;1020;48.854;8.830;2023-08-20T03:50:36;17.30;;;15.70;;
2029;SDS011;1020;48.854;8.830;2023-08-20T03:53:03;16.63;;;15.30;;
2029;SDS011;1020;48.854;8.830;2023-08-20T03:55:30;16.00;;;14.40;;
2029;SDS011;1020;48.854;8.830;2023-08-20T03:57:56;16.23;;;15.10;;
2029;SDS011;1020;48.854;8.830;2023-08-20T04:00:23;17.23;;;15.70;;
2029;SDS011;1020;48.854;8.830;2023-08-20T04:02:51;17.10;;;15.83;;
2029;SDS011;1020;48.854;8.830;2023-08-20T04:05:18;15.17;;;13.97;;
2029;SDS011;1020;48.854;8.830;2023-08-20T04:07:45;17.23;;;15.77;;
2029;SDS011;1020;48.854;8.830;2023-08-20T04:10:12;17.80;;;16.40;;
2029;SDS011;1020;48.854;8.830;2023-08-20T04:12:39;17.23;;;15.63;;
2029;SDS011;1020;48.854;8.830;2023-08-20T04:15:06;17.43;;;16.03;;
2029;SDS011;1020;48.854;8.830;2023-08-20T04:17:32;18.50;;;16.90;;
2029;SDS011;1020;48.854;8.830;2023-08-20T04:20:01;18.67;;;16.87;;
2029;SDS011;1020;48.854;8.830;2023-08-20T04:22:28;17.73;;;16.33;;
2029;SDS011;1020;48.854;8.830;2023-08-20T04:24:56;17.20;;;15.67;;
2029;SDS011;1020;48.854;8.830;2023-08-20T04:27:23;18.27;;;16.50;;
2029;SDS011;1020;48.854;8.830;2023-08-20T04:29:49;16.83;;;15.53;;
2029;SDS011;1020;48.854;8.830;2023-08-20T04:32:16;16.97;;;15.47;;
2029;SDS011;1020;48.854;8.830;2023-08-20T04:34:43;17.73;;;16.10;;
2029;SDS011;1020;48.854;8.830;2023-08-20T04:37:12;16.73;;;15.27;;
2029;SDS011;1020;48.854;8.830;2023-08-20T04:39:39;18.23;;;16.80;;
2029;SDS011;1020;48.854;8.830;2023-08-20T04:42:06;16.70;;;15.30;;
2029;SDS011;1020;48.854;8.830;2023-08-20T04:44:33;17.80;;;16.17;;
2029;SDS011;1020;48.854;8.830;2023-08-20T04:46:59;16.67;;;15.27;;
2029;SDS011;1020;48.854;8.830;2023-08-20T04:49:26;15.30;;;14.00;;
2029;SDS011;1020;48.854;8.830;2023-08-20T04:51:58;16.33;;;15.00;;
2029;SDS011;1020;48.854;8.830;2023-08-20T04:54:26;15.50;;;14.40;;
2029;SDS011;1020;48.854;8.830;2023-08-20T04:56:52;15.20;;;14.10;;
2029;SDS011;1020;48.854;8.830;2023-08-20T04:59:19;15.20;;;13.90;;
2029;SDS011;1020;48.854;8.830;2023-08-20T05:01:46;14.47;;;13.10;;
2029;SDS011;1020;48.854;8.830;2023-08-20T05:04:13;16.40;;;15.20;;
2029;SDS011;1020;48.854;8.830;2023-08-20T05:06:39;15.20;;;13.77;;
2029;SDS011;1020;48.854;8.830;2023-08-20T05:09:06;15.63;;;14.53;;
2029;SDS011;1020;48.854;8.830;2023-08-20T05:11:34;14.43;;;13.43;;
2029;SDS011;1020;48.854;8.830;2023-08-20T05:14:01;14.10;;;12.90;;
2029;SDS011;1020;48.854;8.830;2023-08-20T05:16:28;13.93;;;12.83;;
2029;SDS011;1020;48.854;8.830;2023-08-20T05:18:55;14.10;;;12.80;;
2029;SDS011;1020;48.854;8.830;2023-08-20T05:21:21;13.70;;;12.30;;
2029;SDS011;1020;48.854;8.830;2023-08-20T05:23:48;14.10;;;12.97;;
2029;SDS011;1020;48.854;8.830;2023-08-20T05:26:15;14.33;;;13.23;;
2029;SDS011;1020;48.854;8.830;2023-08-20T05:28:43;12.33;;;11.50;;
2029;SDS011;1020;48.854;8.830;2023-08-20T05:31:10;13.40;;;12.30;;
2029;SDS011;1020;48.854;8.830;2023-08-20T05:33:37;13.87;;;12.27;;
2029;SDS011;1020;48.854;8.830;2023-08-20T05:36:04;13.03;;;12.07;;
2029;SDS011;1020;48.854;8.830;2023-08-20T05:38:31;13.10;;;12.00;;
2029;SDS011;1020;48.854;8.830;2023-08-20T05:40:57;12.67;;;11.73;;
2029;SDS011;1020;48.854;8.830;2023-08-20T05:43:24;13.00;;;12.00;;
2029;SDS011;1020;48.854;8.830;2023-08-20T05:45:52;12.90;;;11.87;;
2029;SDS011;1020;48.854;8.830;2023-08-20T05:48:19;13.20;;;12.27;;
2029;SDS011;1020;48.854;8.830;2023-08-20T05:50:46;13.23;;;12.23;;
2029;SDS011;1020;48.854;8.830;2023-08-20T05:53:13;13.37;;;12.17;;
2029;SDS011;1020;48.854;8.830;2023-08-20T05:55:40;11.00;;;10.17;;
2029;SDS011;1020;48.854;8.830;2023-08-20T05:58:07;13.10;;;12.10;;
2029;SDS011;1020;48.854;8.830;2023-08-20T06:00:33;13.03;;;11.87;;
2029;SDS011;1020;48.854;8.830;2023-08-20T06:03:01;12.27;;;11.07;;
2029;SDS011;1020;48.854;8.830;2023-08-20T06:05:28;12.00;;;10.90;;
2029;SDS011;1020;48.854;8.830;2023-08-20T06:07:55;11.43;;;10.73;;
2029;SDS011;1020;48.854;8.830;2023-08-20T06:10:22;11.10;;;10.40;;
2029;SDS011;1020;48.854;8.830;2023-08-20T06:12:49;11.67;;;10.87;;
2029;SDS011;1020;48.854;8.830;2023-08-20T06:15:15;12.17;;;11.20;;
2029;SDS011;1020;48.854;8.830;2023-08-20T06:17:42;11.50;;;10.70;;
2029;SDS011;1020;48.854;8.830;2023-08-20T06:20:11;11.43;;;10.63;;
2029;SDS011;1020;48.854;8.830;2023-08-20T06:22:37;12.60;;;11.57;;
2029;SDS011;1020;48.854;8.830;2023-08-20T06:25:05;12.20;;;11.30;;
2029;SDS011;1020;48.854;8.830;2023-08-20T06:27:32;11.13;;;10.33;;
2029;SDS011;1020;48.854;8.830;2023-08-20T06:29:59;12.60;;;11.70;;
2029;SDS011;1020;48.854;8.830;2023-08-20T06:32:26;12.17;;;11.23;;
2029;SDS011;1020;48.854;8.830;2023-08-20T06:34:52;10.30;;;9.60;;
2029;SDS011;1020;48.854;8.830;2023-08-20T06:37:20;11.13;;;10.23;;
2029;SDS011;1020;48.854;8.830;2023-08-20T06:39:47;11.03;;;10.23;;
2029;SDS011;1020;48.854;8.830;2023-08-20T06:42:14;10.80;;;9.90;;
2029;SDS011;1020;48.854;8.830;2023-08-20T06:44:41;11.50;;;10.60;;
2029;SDS011;1020;48.854;8.830;2023-08-20T06:47:08;11.50;;;10.60;;
2029;SDS011;1020;48.854;8.830;2023-08-20T06:49:34;12.03;;;11.07;;
2029;SDS011;1020;48.854;8.830;2023-08-20T06:52:01;11.37;;;10.17;;
2029;SDS011;1020;48.854;8.830;2023-08-20T06:54:29;10.60;;;9.80;;
2029;SDS011;1020;48.854;8.830;2023-08-20T06:56:56;11.63;;;10.73;;
2029;SDS011;1020;48.854;8.830;2023-08-20T06:59:23;10.57;;;9.77;;
2029;SDS011;1020;48.854;8.830;2023-08-20T07:01:50;10.37;;;9.67;;
2029;SDS011;1020;48.854;8.830;2023-08-20T07:04:16;10.17;;;9.50;;
2029;SDS011;1020;48.854;8.830;2023-08-20T07:06:43;10.23;;;9.43;;
2029;SDS011;1020;48.854;8.830;2023-08-20T07:09:10;8.57;;;7.90;;
2029;SDS011;1020;48.854;8.830;2023-08-20T07:11:38;9.87;;;8.97;;
2029;SDS011;1020;48.854;8.830;2023-08-20T07:14:05;8.37;;;7.67;;
2029;SDS011;1020;48.854;8.830;2023-08-20T07:16:32;9.40;;;6.73;;
2029;SDS011;1020;48.854;8.830;2023-08-20T07:18:58;7.63;;;7.13;;
2029;SDS011;1020;48.854;8.830;2023-08-20T07:21:25;6.60;;;6.10;;
2029;SDS011;1020;48.854;8.830;2023-08-20T07:23:52;6.20;;;5.70;;
2029;SDS011;1020;48.854;8.830;2023-08-20T07:26:19;5.97;;;5.57;;
2029;SDS011;1020;48.854;8.830;2023-08-20T07:28:47;6.77;;;6.17;;
2029;SDS011;1020;48.854;8.830;2023-08-20T07:31:23;6.70;;;6.07;;
2029;SDS011;1020;48.854;8.830;2023-08-20T07:33:50;6.67;;;6.13;;
2029;SDS011;1020;48.854;8.830;2023-08-20T07:36:19;5.90;;;5.40;;
2029;SDS011;1020;48.854;8.830;2023-08-20T07:38:48;5.93;;;5.47;;
2029;SDS011;1020;48.854;8.830;2023-08-20T07:41:15;6.23;;;5.83;;
2029;SDS011;1020;48.854;8.830;2023-08-20T07:43:42;7.33;;;6.70;;
2029;SDS011;1020;48.854;8.830;2023-08-20T07:46:10;6.80;;;6.20;;
2029;SDS011;1020;48.854;8.830;2023-08-20T07:48:37;6.40;;;5.90;;
2029;SDS011;1020;48.854;8.830;2023-08-20T07:51:04;11.27;;;5.70;;
2029;SDS011;1020;48.854;8.830;2023-08-20T07:53:31;5.83;;;5.50;;
2029;SDS011;1020;48.854;8.830;2023-08-20T07:55:59;6.83;;;6.10;;
2029;SDS011;1020;48.854;8.830;2023-08-20T07:58:26;6.53;;;6.03;;
2029;SDS011;1020;48.854;8.830;2023-08-20T08:00:54;5.57;;;5.17;;
2029;SDS011;1020;48.854;8.830;2023-08-20T08:03:22;7.00;;;5.70;;
2029;SDS011;1020;48.854;8.830;2023-08-20T08:05:50;5.60;;;5.20;;
2029;SDS011;1020;48.854;8.830;2023-08-20T08:08:19;7.47;;;6.73;;
2029;SDS011;1020;48.854;8.830;2023-08-20T08:10:46;7.73;;;7.10;;
2029;SDS011;1020;48.854;8.830;2023-08-20T08:13:12;6.00;;;5.60;;
2029;SDS011;1020;48.854;8.830;2023-08-20T08:15:40;6.63;;;6.13;;
2029;SDS011;1020;48.854;8.830;2023-08-20T08:18:07;6.27;;;5.73;;
2029;SDS011;1020;48.854;8.830;2023-08-20T08:20:35;5.80;;;5.40;;
2029;SDS011;1020;48.854;8.830;2023-08-20T08:23:02;6.65;;;6.25;;
2029;SDS011;1020;48.854;8.830;2023-08-20T08:25:29;7.03;;;6.53;;
2029;SDS011;1020;48.854;8.830;2023-08-20T08:27:56;6.27;;;5.87;;
2029;SDS011;1020;48.854;8.830;2023-08-20T08:30:23;8.33;;;7.00;;
2029;SDS011;1020;48.854;8.830;2023-08-20T08:32:50;7.53;;;6.90;;
2029;SDS011;1020;48.854;8.830;2023-08-20T08:35:17;6.13;;;5.63;;
2029;SDS011;1020;48.854;8.830;2023-08-20T08:37:45;6.13;;;5.73;;
2029;SDS011;1020;48.854;8.830;2023-08-20T08:40:12;6.63;;;6.23;;
2029;SDS011;1020;48.854;8.830;2023-08-20T08:42:40;6.60;;;5.97;;
2029;SDS011;1020;48.854;8.830;2023-08-20T08:45:07;6.30;;;5.28;;
2029;SDS011;1020;48.854;8.830;2023-08-20T08:47:36;5.43;;;4.82;;
2029;SDS011;1020;48.854;8.830;2023-08-20T08:50:05;6.10;;;4.93;;
2029;SDS011;1020;48.854;8.830;2023-08-20T08:52:35;5.55;;;5.15;;
2029;SDS011;1020;48.854;8.830;2023-08-20T08:55:05;5.38;;;5.05;;
2029;SDS011;1020;48.854;8.830;2023-08-20T08:57:33;5.38;;;4.93;;
2029;SDS011;1020;48.854;8.830;2023-08-20T09:00:00;5.78;;;5.38;;
2029;SDS011;1020;48.854;8.830;2023-08-20T09:02:28;4.47;;;4.28;;
2029;SDS011;1020;48.854;8.830;2023-08-20T09:04:54;5.90;;;5.60;;
2029;SDS011;1020;48.854;8.830;2023-08-20T09:07:22;5.78;;;5.18;;
2029;SDS011;1020;48.854;8.830;2023-08-20T09:09:49;5.63;;;5.22;;
2029;SDS011;1020;48.854;8.830;2023-08-20T09:12:18;5.57;;;5.10;;
2029;SDS011;1020;48.854;8.830;2023-08-20T09:14:46;5.93;;;5.43;;
2029;SDS011;1020;48.854;8.830;2023-08-20T09:17:14;5.78;;;5.10;;
2029;SDS011;1020;48.854;8.830;2023-08-20T09:19:42;6.63;;;6.03;;
2029;SDS011;1020;48.854;8.830;2023-08-20T09:22:10;5.70;;;5.20;;
2029;SDS011;1020;48.854;8.830;2023-08-20T09:24:39;5.38;;;5.07;;
2029;SDS011;1020;48.854;8.830;2023-08-20T09:27:08;4.90;;;4.50;;
2029;SDS011;1020;48.854;8.830;2023-08-20T09:29:44;5.22;;;4.93;;
2029;SDS011;1020;48.854;8.830;2023-08-20T09:32:15;5.47;;;4.97;;
2029;SDS011;1020;48.854;8.830;2023-08-20T09:34:43;4.95;;;4.65;;
2029;SDS011;1020;48.854;8.830;2023-08-20T09:37:10;7.28;;;5.43;;
2029;SDS011;1020;48.854;8.830;2023-08-20T09:39:38;4.60;;;4.30;;
2029;SDS011;1020;48.854;8.830;2023-08-20T09:42:05;5.30;;;4.80;;
2029;SDS011;1020;48.854;8.830;2023-08-20T09:44:33;4.60;;;4.28;;
2029;SDS011;1020;48.854;8.830;2023-08-20T09:47:06;4.68;;;4.35;;
2029;SDS011;1020;48.854;8.830;2023-08-20T09:49:37;4.30;;;4.10;;
2029;SDS011;1020;48.854;8.830;2023-08-20T09:52:05;5.80;;;5.43;;
2029;SDS011;1020;48.854;8.830;2023-08-20T09:54:36;4.78;;;4.47;;
2029;SDS011;1020;48.854;8.830;2023-08-20T09:57:15;4.40;;;4.20;;
2029;SDS011;1020;48.854;8.830;2023-08-20T09:59:49;5.03;;;4.65;;
2029;SDS011;1020;48.854;8.830;2023-08-20T10:02:18;5.55;;;5.18;;
2029;SDS011;1020;48.854;8.830;2023-08-20T10:04:45;4.97;;;4.68;;
2029;SDS011;1020;48.854;8.830;2023-08-20T10:07:15;4.78;;;4.47;;
2029;SDS011;1020;48.854;8.830;2023-08-20T10:09:42;5.28;;;4.93;;
2029;SDS011;1020;48.854;8.830;2023-08-20T10:12:11;5.00;;;4.70;;
2029;SDS011;1020;48.854;8.830;2023-08-20T10:14:39;6.35;;;5.10;;
2029;SDS011;1020;48.854;8.830;2023-08-20T10:17:06;5.60;;;5.10;;
2029;SDS011;1020;48.854;8.830;2023-08-20T10:19:35;5.32;;;4.85;;
2029;SDS011;1020;48.854;8.830;2023-08-20T10:22:03;4.28;;;3.97;;
2029;SDS011;1020;48.854;8.830;2023-08-20T10:24:39;5.32;;;4.85;;
2029;SDS011;1020;48.854;8.830;2023-08-20T10:27:07;5.85;;;5.32;;
2029;SDS011;1020;48.854;8.830;2023-08-20T10:29:36;4.32;;;4.13;;
2029;SDS011;1020;48.854;8.830;2023-08-20T10:32:04;5.55;;;5.03;;
2029;SDS011;1020;48.854;8.830;2023-08-20T10:34:32;5.13;;;4.68;;
2029;SDS011;1020;48.854;8.830;2023-08-20T10:37:02;5.35;;;5.05;;
2029;SDS011;1020;48.854;8.830;2023-08-20T10:39:34;5.68;;;5.28;;
2029;SDS011;1020;48.854;8.830;2023-08-20T10:42:21;4.70;;;4.40;;
2029;SDS011;1020;48.854;8.830;2023-08-20T10:44:57;5.22;;;4.90;;
2029;SDS011;1020;48.854;8.830;2023-08-20T10:47:24;5.70;;;5.30;;
2029;SDS011;1020;48.854;8.830;2023-08-20T10:49:53;4.97;;;4.68;;
2029;SDS011;1020;48.854;8.830;2023-08-20T10:52:20;5.45;;;4.95;;
2029;SDS011;1020;48.854;8.830;2023-08-20T10:54:49;5.05;;;4.63;;
2029;SDS011;1020;48.854;8.830;2023-08-20T10:57:17;4.70;;;4.50;;
2029;SDS011;1020;48.854;8.830;2023-08-20T10:59:47;5.10;;;4.65;;
2029;SDS011;1020;48.854;8.830;2023-08-20T11:02:23;5.28;;;4.88;;
2029;SDS011;1020;48.854;8.830;2023-08-20T11:04:51;4.95;;;4.65;;
2029;SDS011;1020;48.854;8.830;2023-08-20T11:07:20;5.25;;;4.95;;
2029;SDS011;1020;48.854;8.830;2023-08-20T11:09:48;4.90;;;4.50;;
2029;SDS011;1020;48.854;8.830;2023-08-20T11:12:19;5.22;;;4.93;;
2029;SDS011;1020;48.854;8.830;2023-08-20T11:14:47;5.05;;;4.65;;
2029;SDS011;1020;48.854;8.830;2023-08-20T11:17:13;7.55;;;5.25;;
2029;SDS011;1020;48.854;8.830;2023-08-20T11:19:40;4.90;;;4.35;;
2029;SDS011;1020;48.854;8.830;2023-08-20T11:22:09;5.00;;;4.70;;
2029;SDS011;1020;48.854;8.830;2023-08-20T11:24:36;4.93;;;4.57;;
2029;SDS011;1020;48.854;8.830;2023-08-20T11:27:04;4.30;;;4.07;;
2029;SDS011;1020;48.854;8.830;2023-08-20T11:29:31;5.65;;;5.15;;
2029;SDS011;1020;48.854;8.830;2023-08-20T11:31:57;4.80;;;4.40;;
2029;SDS011;1020;48.854;8.830;2023-08-20T11:34:28;4.95;;;4.63;;
2029;SDS011;1020;48.854;8.830;2023-08-20T11:36:55;4.82;;;4.30;;
2029;SDS011;1020;48.854;8.830;2023-08-20T11:39:24;5.53;;;5.22;;
2029;SDS011;1020;48.854;8.830;2023-08-20T11:41:50;5.78;;;5.28;;
2029;SDS011;1020;48.854;8.830;2023-08-20T11:44:21;5.50;;;5.10;;
2029;SDS011;1020;48.854;8.830;2023-08-20T11:46:48;5.60;;;5.10;;
2029;SDS011;1020;48.854;8.830;2023-08-20T11:49:15;5.32;;;5.00;;
2029;SDS011;1020;48.854;8.830;2023-08-20T11:51:42;4.90;;;4.50;;
2029;SDS011;1020;48.854;8.830;2023-08-20T11:54:11;4.53;;;4.22;;
2029;SDS011;1020;48.854;8.830;2023-08-20T11:56:42;4.80;;;4.40;;
2029;SDS011;1020;48.854;8.830;2023-08-20T11:59:10;4.78;;;4.47;;
2029;SDS011;1020;48.854;8.830;2023-08-20T12:01:37;5.13;;;4.68;;
2029;SDS011;1020;48.854;8.830;2023-08-20T12:04:05;6.53;;;5.35;;
2029;SDS011;1020;48.854;8.830;2023-08-20T12:06:33;5.28;;;4.88;;
2029;SDS011;1020;48.854;8.830;2023-08-20T12:09:01;5.90;;;5.38;;
2029;SDS011;1020;48.854;8.830;2023-08-20T12:11:29;5.57;;;5.28;;
2029;SDS011;1020;48.854;8.830;2023-08-20T12:13:59;4.90;;;4.32;;
2029;SDS011;1020;48.854;8.830;2023-08-20T12:16:26;5.07;;;4.68;;
2029;SDS011;1020;48.854;8.830;2023-08-20T12:18:53;5.35;;;4.95;;
2029;SDS011;1020;48.854;8.830;2023-08-20T12:21:20;6.05;;;5.55;;
2029;SDS011;1020;48.854;8.830;2023-08-20T12:23:47;4.80;;;4.40;;
2029;SDS011;1020;48.854;8.830;2023-08-20T12:26:14;5.25;;;4.95;;
2029;SDS011;1020;48.854;8.830;2023-08-20T12:28:40;4.82;;;4.43;;
2029;SDS011;1020;48.854;8.830;2023-08-20T12:31:09;5.00;;;4.70;;
2029;SDS011;1020;48.854;8.830;2023-08-20T12:33:35;4.03;;;3.83;;
2029;SDS011;1020;48.854;8.830;2023-08-20T12:36:02;5.03;;;4.72;;
2029;SDS011;1020;48.854;8.830;2023-08-20T12:38:29;7.50;;;5.25;;
2029;SDS011;1020;48.854;8.830;2023-08-20T12:40:58;4.88;;;4.57;;
2029;SDS011;1020;48.854;8.830;2023-08-20T12:43:26;5.13;;;4.78;;
2029;SDS011;1020;48.854;8.830;2023-08-20T12:45:52;4.95;;;4.53;;
2029;SDS011;1020;48.854;8.830;2023-08-20T12:48:20;4.97;;;4.57;;
2029;SDS011;1020;48.854;8.830;2023-08-20T12:50:47;5.05;;;4.65;;
2029;SDS011;1020;48.854;8.830;2023-08-20T12:53:14;5.57;;;5.15;;
2029;SDS011;1020;48.854;8.830;2023-08-20T12:55:41;5.10;;;4.72;;
2029;SDS011;1020;48.854;8.830;2023-08-20T12:58:08;5.30;;;4.60;;
2029;SDS011;1020;48.854;8.830;2023-08-20T13:00:34;4.95;;;4.57;;
2029;SDS011;1020;48.854;8.830;2023-08-20T13:03:01;4.95;;;4.60;;
2029;SDS011;1020;48.854;8.830;2023-08-20T13:05:31;4.68;;;4.20;;
2029;SDS011;1020;48.854;8.830;2023-08-20T13:07:58;5.05;;;4.75;;
2029;SDS011;1020;48.854;8.830;2023-08-20T13:10:25;5.38;;;4.97;;
2029;SDS011;1020;48.854;8.830;2023-08-20T13:12:54;5.10;;;4.70;;
2029;SDS011;1020;48.854;8.830;2023-08-20T13:15:26;5.03;;;4.10;;
2029;SDS011;1020;48.854;8.830;2023-08-20T13:17:53;4.60;;;4.30;;
2029;SDS011;1020;48.854;8.830;2023-08-20T13:20:20;4.38;;;4.07;;
2029;SDS011;1020;48.854;8.830;2023-08-20T13:22:50;4.95;;;4.60;;
2029;SDS011;1020;48.854;8.830;2023-08-20T13:25:18;4.47;;;4.28;;
2029;SDS011;1020;48.854;8.830;2023-08-20T13:27:46;4.82;;;4.45;;
2029;SDS011;1020;48.854;8.830;2023-08-20T13:30:13;4.97;;;4.50;;
2029;SDS011;1020;48.854;8.830;2023-08-20T13:32:40;4.38;;;4.10;;
2029;SDS011;1020;48.854;8.830;2023-08-20T13:35:07;6.38;;;4.22;;
2029;SDS011;1020;48.854;8.830;2023-08-20T13:37:34;4.65;;;4.35;;
2029;SDS011;1020;48.854;8.830;2023-08-20T13:40:02;4.18;;;3.88;;
2029;SDS011;1020;48.854;8.830;2023-08-20T13:42:30;5.80;;;4.30;;
2029;SDS011;1020;48.854;8.830;2023-08-20T13:44:57;3.97;;;3.78;;
2029;SDS011;1020;48.854;8.830;2023-08-20T13:47:23;5.30;;;4.43;;
2029;SDS011;1020;48.854;8.830;2023-08-20T13:49:50;3.75;;;3.53;;
2029;SDS011;1020;48.854;8.830;2023-08-20T13:52:17;3.78;;;3.58;;
2029;SDS011;1020;48.854;8.830;2023-08-20T13:54:44;4.70;;;4.25;;
2029;SDS011;1020;48.854;8.830;2023-08-20T13:57:13;4.47;;;4.18;;
2029;SDS011;1020;48.854;8.830;2023-08-20T13:59:39;9.73;;;4.18;;
2029;SDS011;1020;48.854;8.830;2023-08-20T14:02:06;4.50;;;4.10;;
2029;SDS011;1020;48.854;8.830;2023-08-20T14:04:34;4.20;;;3.90;;
2029;SDS011;1020;48.854;8.830;2023-08-20T14:07:01;5.82;;;4.18;;
2029;SDS011;1020;48.854;8.830;2023-08-20T14:09:28;4.30;;;4.00;;
2029;SDS011;1020;48.854;8.830;2023-08-20T14:11:55;4.10;;;3.90;;
2029;SDS011;1020;48.854;8.830;2023-08-20T14:14:23;4.43;;;4.13;;
2029;SDS011;1020;48.854;8.830;2023-08-20T14:16:50;4.85;;;4.45;;
2029;SDS011;1020;48.854;8.830;2023-08-20T14:19:17;6.00;;;4.13;;
2029;SDS011;1020;48.854;8.830;2023-08-20T14:21:43;4.22;;;3.92;;
2029;SDS011;1020;48.854;8.830;2023-08-20T14:24:10;4.22;;;3.92;;
2029;SDS011;1020;48.854;8.830;2023-08-20T14:26:37;4.35;;;4.05;;
2029;SDS011;1020;48.854;8.830;2023-08-20T14:29:04;4.47;;;4.18;;
2029;SDS011;1020;48.854;8.830;2023-08-20T14:31:32;4.35;;;4.05;;
2029;SDS011;1020;48.854;8.830;2023-08-20T14:33:58;4.85;;;4.45;;
2029;SDS011;1020;48.854;8.830;2023-08-20T14:36:25;4.88;;;4.38;;
2029;SDS011;1020;48.854;8.830;2023-08-20T14:38:52;4.10;;;3.60;;
2029;SDS011;1020;48.854;8.830;2023-08-20T14:41:19;5.28;;;4.88;;
2029;SDS011;1020;48.854;8.830;2023-08-20T14:43:45;4.43;;;3.70;;
2029;SDS011;1020;48.854;8.830;2023-08-20T14:46:12;4.50;;;4.20;;
2029;SDS011;1020;48.854;8.830;2023-08-20T14:48:40;3.50;;;3.30;;
2029;SDS011;1020;48.854;8.830;2023-08-20T14:51:08;4.63;;;4.22;;
2029;SDS011;1020;48.854;8.830;2023-08-20T14:53:35;4.55;;;4.15;;
2029;SDS011;1020;48.854;8.830;2023-08-20T14:56:01;4.00;;;3.70;;
2029;SDS011;1020;48.854;8.830;2023-08-20T14:58:28;4.47;;;4.07;;
2029;SDS011;1020;48.854;8.830;2023-08-20T15:00:55;4.38;;;4.13;;
2029;SDS011;1020;48.854;8.830;2023-08-20T15:03:22;4.50;;;4.03;;
2029;SDS011;1020;48.854;8.830;2023-08-20T15:05:50;4.00;;;3.58;;
2029;SDS011;1020;48.854;8.830;2023-08-20T15:08:17;5.00;;;4.43;;